sensor_id;sensor_type;location;lat;lon;timestamp;temperature;humidity
6407;DHT22;3236;51.022;6.818;2022-08-30T00:00:16;18.90;99.90
6407;DHT22;3236;51.022;6.818;2022-08-30T00:03:02;19.00;99.90
6407;DHT22;3236;51.022;6.818;2022-08-30T00:05:31;19.20;99.90
6407;DHT22;3236;51.022;6.818;2022-08-30T00:07:59;18.80;99.90
6407;DHT22;3236;51.022;6.818;2022-08-30T00:10:27;18.40;99.90
6407;DHT22;3236;51.022;6.818;2022-08-30T00:12:55;18.60;99.90
6407;DHT22;3236;51.022;6.818;2022-08-30T00:15:24;18.40;99.90
6407;DHT22;3236;51.022;6.818;2022-08-30T00:17:55;19.00;99.90
6407;DHT22;3236;51.022;6.818;2022-08-30T00:20:27;18.20;99.90
6407;DHT22;3236;51.022;6.818;2022-08-30T00:22:54;18.30;99.90
6407;DHT22;3236;51.022;6.818;2022-08-30T00:27:50;18.20;99.90
6407;DHT22;3236;51.022;6.818;2022-08-30T00:30:17;18.60;99.90
6407;DHT22;3236;51.022;6.818;2022-08-30T00:32:46;18.20;99.90
6407;DHT22;3236;51.022;6.818;2022-08-30T00:35:16;18.20;99.90
6407;DHT22;3236;51.022;6.818;2022-08-30T00:40:13;18.20;99.90
6407;DHT22;3236;51.022;6.818;2022-08-30T00:42:42;18.30;99.90
6407;DHT22;3236;51.022;6.818;2022-08-30T00:45:12;18.10;99.90
6407;DHT22;3236;51.022;6.818;2022-08-30T00:50:09;16.50;99.90
6407;DHT22;3236;51.022;6.818;2022-08-30T00:52:38;17.60;99.90
6407;DHT22;3236;51.022;6.818;2022-08-30T00:55:07;17.70;99.90
6407;DHT22;3236;51.022;6.818;2022-08-30T00:57:35;17.50;99.90
6407;DHT22;3236;51.022;6.818;2022-08-30T01:00:05;17.60;99.90
6407;DHT22;3236;51.022;6.818;2022-08-30T01:02:33;17.90;99.90
6407;DHT22;3236;51.022;6.818;2022-08-30T01:07:29;18.10;99.90
6407;DHT22;3236;51.022;6.818;2022-08-30T01:09:56;17.90;99.90
6407;DHT22;3236;51.022;6.818;2022-08-30T01:12:23;18.10;99.90
6407;DHT22;3236;51.022;6.818;2022-08-30T01:14:50;17.90;99.90
6407;DHT22;3236;51.022;6.818;2022-08-30T01:17:17;17.90;99.90
6407;DHT22;3236;51.022;6.818;2022-08-30T01:19:48;17.50;99.90
6407;DHT22;3236;51.022;6.818;2022-08-30T01:22:21;19.00;99.90
6407;DHT22;3236;51.022;6.818;2022-08-30T01:24:53;18.00;99.90
6407;DHT22;3236;51.022;6.818;2022-08-30T01:27:22;17.50;99.90
6407;DHT22;3236;51.022;6.818;2022-08-30T01:29:49;17.70;99.90
6407;DHT22;3236;51.022;6.818;2022-08-30T01:32:18;17.80;99.90
6407;DHT22;3236;51.022;6.818;2022-08-30T01:34:46;17.40;99.90
6407;DHT22;3236;51.022;6.818;2022-08-30T01:37:14;17.70;99.90
6407;DHT22;3236;51.022;6.818;2022-08-30T01:39:44;18.00;99.90
6407;DHT22;3236;51.022;6.818;2022-08-30T01:44:42;17.70;99.90
6407;DHT22;3236;51.022;6.818;2022-08-30T01:47:09;17.80;99.90
6407;DHT22;3236;51.022;6.818;2022-08-30T01:49:37;17.50;99.90
6407;DHT22;3236;51.022;6.818;2022-08-30T01:52:04;17.80;99.90
6407;DHT22;3236;51.022;6.818;2022-08-30T01:54:33;18.20;99.90
6407;DHT22;3236;51.022;6.818;2022-08-30T01:57:00;17.60;99.90
6407;DHT22;3236;51.022;6.818;2022-08-30T01:59:29;17.80;99.90
6407;DHT22;3236;51.022;6.818;2022-08-30T02:07:45;18.10;99.90
6407;DHT22;3236;51.022;6.818;2022-08-30T02:10:12;17.90;99.90
6407;DHT22;3236;51.022;6.818;2022-08-30T02:12:39;18.00;99.90
6407;DHT22;3236;51.022;6.818;2022-08-30T02:15:08;18.10;99.90
6407;DHT22;3236;51.022;6.818;2022-08-30T02:17:36;17.80;99.90
6407;DHT22;3236;51.022;6.818;2022-08-30T02:20:04;17.60;99.90
6407;DHT22;3236;51.022;6.818;2022-08-30T02:22:31;17.50;99.90
6407;DHT22;3236;51.022;6.818;2022-08-30T02:24:58;17.20;99.90
6407;DHT22;3236;51.022;6.818;2022-08-30T02:27:26;17.60;99.90
6407;DHT22;3236;51.022;6.818;2022-08-30T02:29:53;17.60;99.90
6407;DHT22;3236;51.022;6.818;2022-08-30T02:32:21;17.90;99.90
6407;DHT22;3236;51.022;6.818;2022-08-30T02:34:50;19.00;99.90
6407;DHT22;3236;51.022;6.818;2022-08-30T02:37:17;17.90;99.90
6407;DHT22;3236;51.022;6.818;2022-08-30T02:42:12;17.50;99.90
6407;DHT22;3236;51.022;6.818;2022-08-30T02:44:39;17.70;99.90
6407;DHT22;3236;51.022;6.818;2022-08-30T02:47:07;17.70;99.90
6407;DHT22;3236;51.022;6.818;2022-08-30T02:49:37;17.70;99.90
6407;DHT22;3236;51.022;6.818;2022-08-30T02:52:04;17.70;99.90
6407;DHT22;3236;51.022;6.818;2022-08-30T02:56:59;17.50;99.90
6407;DHT22;3236;51.022;6.818;2022-08-30T02:59:29;17.30;99.90
6407;DHT22;3236;51.022;6.818;2022-08-30T03:01:59;17.50;99.90
6407;DHT22;3236;51.022;6.818;2022-08-30T03:04:26;17.10;99.90
6407;DHT22;3236;51.022;6.818;2022-08-30T03:06:54;18.70;99.90
6407;DHT22;3236;51.022;6.818;2022-08-30T03:09:24;17.20;99.90
6407;DHT22;3236;51.022;6.818;2022-08-30T03:11:51;17.70;99.90
6407;DHT22;3236;51.022;6.818;2022-08-30T03:14:18;17.60;99.90
6407;DHT22;3236;51.022;6.818;2022-08-30T03:16:46;17.50;99.90
6407;DHT22;3236;51.022;6.818;2022-08-30T03:19:13;17.30;99.90
6407;DHT22;3236;51.022;6.818;2022-08-30T03:21:40;17.60;99.90
6407;DHT22;3236;51.022;6.818;2022-08-30T03:24:08;17.60;99.90
6407;DHT22;3236;51.022;6.818;2022-08-30T03:26:35;17.50;99.90
6407;DHT22;3236;51.022;6.818;2022-08-30T03:29:02;17.70;99.90
6407;DHT22;3236;51.022;6.818;2022-08-30T03:31:29;17.90;99.90
6407;DHT22;3236;51.022;6.818;2022-08-30T03:36:24;17.50;99.90
6407;DHT22;3236;51.022;6.818;2022-08-30T03:38:51;17.40;99.90
6407;DHT22;3236;51.022;6.818;2022-08-30T03:41:19;17.40;99.90
6407;DHT22;3236;51.022;6.818;2022-08-30T03:43:46;17.80;99.90
6407;DHT22;3236;51.022;6.818;2022-08-30T03:46:13;17.30;99.90
6407;DHT22;3236;51.022;6.818;2022-08-30T03:48:40;17.10;99.90
6407;DHT22;3236;51.022;6.818;2022-08-30T03:51:08;17.20;99.90
6407;DHT22;3236;51.022;6.818;2022-08-30T03:53:35;16.90;99.90
6407;DHT22;3236;51.022;6.818;2022-08-30T03:56:02;17.00;99.90
6407;DHT22;3236;51.022;6.818;2022-08-30T03:58:31;17.10;99.90
6407;DHT22;3236;51.022;6.818;2022-08-30T04:00:59;17.00;99.90
6407;DHT22;3236;51.022;6.818;2022-08-30T04:03:28;16.80;99.90
6407;DHT22;3236;51.022;6.818;2022-08-30T04:08:23;17.30;99.90
6407;DHT22;3236;51.022;6.818;2022-08-30T04:10:50;17.10;99.90
6407;DHT22;3236;51.022;6.818;2022-08-30T04:13:18;17.10;99.90
6407;DHT22;3236;51.022;6.818;2022-08-30T04:15:47;17.20;99.90
6407;DHT22;3236;51.022;6.818;2022-08-30T04:18:17;16.80;99.90
6407;DHT22;3236;51.022;6.818;2022-08-30T04:20:47;16.50;99.90
6407;DHT22;3236;51.022;6.818;2022-08-30T04:23:14;16.70;99.90
6407;DHT22;3236;51.022;6.818;2022-08-30T04:25:45;16.60;99.90
6407;DHT22;3236;51.022;6.818;2022-08-30T04:28:12;16.60;99.90
6407;DHT22;3236;51.022;6.818;2022-08-30T04:30:40;16.80;99.90
6407;DHT22;3236;51.022;6.818;2022-08-30T04:33:10;16.80;99.90
6407;DHT22;3236;51.022;6.818;2022-08-30T04:35:40;16.90;99.90
6407;DHT22;3236;51.022;6.818;2022-08-30T04:38:07;16.50;99.90
6407;DHT22;3236;51.022;6.818;2022-08-30T04:40:35;17.20;99.90
6407;DHT22;3236;51.022;6.818;2022-08-30T04:43:02;16.50;99.90
6407;DHT22;3236;51.022;6.818;2022-08-30T04:45:29;16.80;99.90
6407;DHT22;3236;51.022;6.818;2022-08-30T04:47:57;16.80;99.90
6407;DHT22;3236;51.022;6.818;2022-08-30T04:50:25;17.00;99.90
6407;DHT22;3236;51.022;6.818;2022-08-30T04:52:52;16.50;99.90
6407;DHT22;3236;51.022;6.818;2022-08-30T04:55:21;16.50;99.90
6407;DHT22;3236;51.022;6.818;2022-08-30T05:00:17;16.10;99.90
6407;DHT22;3236;51.022;6.818;2022-08-30T05:02:45;16.70;99.90
6407;DHT22;3236;51.022;6.818;2022-08-30T05:07:59;16.40;99.90
6407;DHT22;3236;51.022;6.818;2022-08-30T05:10:27;16.50;99.90
6407;DHT22;3236;51.022;6.818;2022-08-30T05:12:54;16.40;99.90
6407;DHT22;3236;51.022;6.818;2022-08-30T05:15:23;16.70;99.90
6407;DHT22;3236;51.022;6.818;2022-08-30T05:17:49;16.40;99.90
6407;DHT22;3236;51.022;6.818;2022-08-30T05:20:17;16.60;99.90
6407;DHT22;3236;51.022;6.818;2022-08-30T05:22:44;16.50;99.90
6407;DHT22;3236;51.022;6.818;2022-08-30T05:25:16;16.30;99.90
6407;DHT22;3236;51.022;6.818;2022-08-30T05:27:44;16.60;99.90
6407;DHT22;3236;51.022;6.818;2022-08-30T05:30:11;16.50;99.90
6407;DHT22;3236;51.022;6.818;2022-08-30T05:32:39;16.50;99.90
6407;DHT22;3236;51.022;6.818;2022-08-30T05:35:07;16.80;99.90
6407;DHT22;3236;51.022;6.818;2022-08-30T05:37:36;16.90;99.90
6407;DHT22;3236;51.022;6.818;2022-08-30T05:40:04;17.00;99.90
6407;DHT22;3236;51.022;6.818;2022-08-30T05:42:34;17.00;99.90
6407;DHT22;3236;51.022;6.818;2022-08-30T05:45:02;16.80;99.90
6407;DHT22;3236;51.022;6.818;2022-08-30T05:47:29;17.00;99.90
6407;DHT22;3236;51.022;6.818;2022-08-30T05:49:56;16.90;99.90
6407;DHT22;3236;51.022;6.818;2022-08-30T05:52:23;17.40;99.90
6407;DHT22;3236;51.022;6.818;2022-08-30T05:54:54;17.20;99.90
6407;DHT22;3236;51.022;6.818;2022-08-30T05:57:26;17.40;99.90
6407;DHT22;3236;51.022;6.818;2022-08-30T05:59:56;17.90;99.90
6407;DHT22;3236;51.022;6.818;2022-08-30T06:02:23;18.60;99.90
6407;DHT22;3236;51.022;6.818;2022-08-30T06:04:50;18.20;99.90
6407;DHT22;3236;51.022;6.818;2022-08-30T06:07:20;19.00;99.90
6407;DHT22;3236;51.022;6.818;2022-08-30T06:09:47;18.90;99.90
6407;DHT22;3236;51.022;6.818;2022-08-30T06:12:14;19.00;99.90
6407;DHT22;3236;51.022;6.818;2022-08-30T06:14:41;19.00;99.90
6407;DHT22;3236;51.022;6.818;2022-08-30T06:17:09;19.30;99.90
6407;DHT22;3236;51.022;6.818;2022-08-30T06:19:36;18.60;99.90
6407;DHT22;3236;51.022;6.818;2022-08-30T06:22:03;19.10;99.90
6407;DHT22;3236;51.022;6.818;2022-08-30T06:24:31;19.00;99.90
6407;DHT22;3236;51.022;6.818;2022-08-30T06:26:58;19.20;99.90
6407;DHT22;3236;51.022;6.818;2022-08-30T06:29:26;19.00;99.90
6407;DHT22;3236;51.022;6.818;2022-08-30T06:31:57;19.50;99.90
6407;DHT22;3236;51.022;6.818;2022-08-30T06:34:25;19.40;99.90
6407;DHT22;3236;51.022;6.818;2022-08-30T06:36:53;19.30;99.90
6407;DHT22;3236;51.022;6.818;2022-08-30T06:39:20;19.50;99.90
6407;DHT22;3236;51.022;6.818;2022-08-30T06:41:47;19.60;99.90
6407;DHT22;3236;51.022;6.818;2022-08-30T06:44:13;19.50;99.90
6407;DHT22;3236;51.022;6.818;2022-08-30T06:46:41;19.80;99.90
6407;DHT22;3236;51.022;6.818;2022-08-30T06:49:08;20.00;99.90
6407;DHT22;3236;51.022;6.818;2022-08-30T06:51:37;19.90;99.90
6407;DHT22;3236;51.022;6.818;2022-08-30T06:54:06;20.00;99.90
6407;DHT22;3236;51.022;6.818;2022-08-30T06:59:00;20.10;99.90
6407;DHT22;3236;51.022;6.818;2022-08-30T07:01:28;20.60;99.90
6407;DHT22;3236;51.022;6.818;2022-08-30T07:03:55;21.30;99.90
6407;DHT22;3236;51.022;6.818;2022-08-30T07:06:24;20.90;99.90
6407;DHT22;3236;51.022;6.818;2022-08-30T07:08:53;21.50;99.90
6407;DHT22;3236;51.022;6.818;2022-08-30T07:11:28;21.70;99.90
6407;DHT22;3236;51.022;6.818;2022-08-30T07:13:56;22.10;99.90
6407;DHT22;3236;51.022;6.818;2022-08-30T07:16:24;22.00;99.90
6407;DHT22;3236;51.022;6.818;2022-08-30T07:18:51;22.10;99.90
6407;DHT22;3236;51.022;6.818;2022-08-30T07:21:22;21.80;99.90
6407;DHT22;3236;51.022;6.818;2022-08-30T07:23:49;21.40;99.90
6407;DHT22;3236;51.022;6.818;2022-08-30T07:26:20;22.30;99.90
6407;DHT22;3236;51.022;6.818;2022-08-30T07:28:48;21.80;99.90
6407;DHT22;3236;51.022;6.818;2022-08-30T07:31:16;22.00;99.90
6407;DHT22;3236;51.022;6.818;2022-08-30T07:33:44;22.80;99.90
6407;DHT22;3236;51.022;6.818;2022-08-30T07:36:12;22.30;99.90
6407;DHT22;3236;51.022;6.818;2022-08-30T07:38:40;22.50;99.90
6407;DHT22;3236;51.022;6.818;2022-08-30T07:43:36;22.80;99.90
6407;DHT22;3236;51.022;6.818;2022-08-30T07:46:04;23.00;99.90
6407;DHT22;3236;51.022;6.818;2022-08-30T07:48:32;23.70;99.90
6407;DHT22;3236;51.022;6.818;2022-08-30T07:51:00;23.60;99.90
6407;DHT22;3236;51.022;6.818;2022-08-30T07:53:30;22.80;99.90
6407;DHT22;3236;51.022;6.818;2022-08-30T07:55:57;23.20;99.90
6407;DHT22;3236;51.022;6.818;2022-08-30T07:58:25;23.60;99.90
6407;DHT22;3236;51.022;6.818;2022-08-30T08:00:53;23.20;99.90
6407;DHT22;3236;51.022;6.818;2022-08-30T08:03:24;24.40;99.90
6407;DHT22;3236;51.022;6.818;2022-08-30T08:05:51;24.20;99.90
6407;DHT22;3236;51.022;6.818;2022-08-30T08:08:21;23.90;99.90
6407;DHT22;3236;51.022;6.818;2022-08-30T08:10:48;23.60;99.90
6407;DHT22;3236;51.022;6.818;2022-08-30T08:13:15;24.10;99.90
6407;DHT22;3236;51.022;6.818;2022-08-30T08:15:44;24.10;99.90
6407;DHT22;3236;51.022;6.818;2022-08-30T08:18:12;24.20;99.90
6407;DHT22;3236;51.022;6.818;2022-08-30T08:20:42;25.30;99.90
6407;DHT22;3236;51.022;6.818;2022-08-30T08:25:38;24.50;99.30
6407;DHT22;3236;51.022;6.818;2022-08-30T08:28:12;24.00;99.90
6407;DHT22;3236;51.022;6.818;2022-08-30T08:30:39;24.40;99.30
6407;DHT22;3236;51.022;6.818;2022-08-30T08:33:06;23.90;98.80
6407;DHT22;3236;51.022;6.818;2022-08-30T08:35:35;25.20;98.60
6407;DHT22;3236;51.022;6.818;2022-08-30T08:40:34;24.40;98.50
6407;DHT22;3236;51.022;6.818;2022-08-30T08:43:09;24.20;98.30
6407;DHT22;3236;51.022;6.818;2022-08-30T08:45:45;24.50;98.10
6407;DHT22;3236;51.022;6.818;2022-08-30T08:48:26;24.50;96.90
6407;DHT22;3236;51.022;6.818;2022-08-30T08:50:56;25.00;96.70
6407;DHT22;3236;51.022;6.818;2022-08-30T08:53:45;24.50;96.70
6407;DHT22;3236;51.022;6.818;2022-08-30T08:56:20;24.50;95.90
6407;DHT22;3236;51.022;6.818;2022-08-30T08:58:54;24.90;96.90
6407;DHT22;3236;51.022;6.818;2022-08-30T09:01:25;24.80;94.60
6407;DHT22;3236;51.022;6.818;2022-08-30T09:03:52;24.50;95.70
6407;DHT22;3236;51.022;6.818;2022-08-30T09:06:41;24.90;94.90
6407;DHT22;3236;51.022;6.818;2022-08-30T09:09:12;24.40;95.70
6407;DHT22;3236;51.022;6.818;2022-08-30T09:11:40;24.50;95.30
6407;DHT22;3236;51.022;6.818;2022-08-30T09:14:10;24.80;95.00
6407;DHT22;3236;51.022;6.818;2022-08-30T09:16:47;25.80;94.90
6407;DHT22;3236;51.022;6.818;2022-08-30T09:19:39;25.20;91.60
6407;DHT22;3236;51.022;6.818;2022-08-30T09:22:22;26.10;90.80
6407;DHT22;3236;51.022;6.818;2022-08-30T09:24:58;25.70;90.60
6407;DHT22;3236;51.022;6.818;2022-08-30T09:27:30;25.70;90.20
6407;DHT22;3236;51.022;6.818;2022-08-30T09:30:06;25.50;88.90
6407;DHT22;3236;51.022;6.818;2022-08-30T09:32:36;26.10;87.40
6407;DHT22;3236;51.022;6.818;2022-08-30T09:35:07;26.00;84.60
6407;DHT22;3236;51.022;6.818;2022-08-30T09:37:39;25.90;84.10
6407;DHT22;3236;51.022;6.818;2022-08-30T09:40:19;25.70;84.60
6407;DHT22;3236;51.022;6.818;2022-08-30T09:43:03;25.80;82.10
6407;DHT22;3236;51.022;6.818;2022-08-30T09:45:33;26.90;81.20
6407;DHT22;3236;51.022;6.818;2022-08-30T09:48:20;26.80;79.10
6407;DHT22;3236;51.022;6.818;2022-08-30T09:50:51;26.80;77.70
6407;DHT22;3236;51.022;6.818;2022-08-30T09:53:24;27.30;76.40
6407;DHT22;3236;51.022;6.818;2022-08-30T09:56:03;26.80;75.00
6407;DHT22;3236;51.022;6.818;2022-08-30T09:58:54;28.20;74.40
6407;DHT22;3236;51.022;6.818;2022-08-30T10:01:29;28.10;70.00
6407;DHT22;3236;51.022;6.818;2022-08-30T10:04:04;27.70;68.60
6407;DHT22;3236;51.022;6.818;2022-08-30T10:06:40;27.30;68.30
6407;DHT22;3236;51.022;6.818;2022-08-30T10:09:24;27.80;67.70
6407;DHT22;3236;51.022;6.818;2022-08-30T10:12:03;27.60;68.10
6407;DHT22;3236;51.022;6.818;2022-08-30T10:14:50;27.60;65.60
6407;DHT22;3236;51.022;6.818;2022-08-30T10:17:33;27.90;65.10
6407;DHT22;3236;51.022;6.818;2022-08-30T10:20:14;28.00;64.40
6407;DHT22;3236;51.022;6.818;2022-08-30T10:22:47;27.60;65.40
6407;DHT22;3236;51.022;6.818;2022-08-30T10:25:21;28.10;65.00
6407;DHT22;3236;51.022;6.818;2022-08-30T10:27:53;29.00;64.10
6407;DHT22;3236;51.022;6.818;2022-08-30T10:30:20;28.60;62.30
6407;DHT22;3236;51.022;6.818;2022-08-30T10:32:53;28.80;63.10
6407;DHT22;3236;51.022;6.818;2022-08-30T10:37:52;27.70;63.50
6407;DHT22;3236;51.022;6.818;2022-08-30T10:40:26;28.50;65.70
6407;DHT22;3236;51.022;6.818;2022-08-30T10:43:17;28.20;62.40
6407;DHT22;3236;51.022;6.818;2022-08-30T10:45:47;28.10;62.40
6407;DHT22;3236;51.022;6.818;2022-08-30T10:48:18;28.70;62.60
6407;DHT22;3236;51.022;6.818;2022-08-30T10:50:49;28.90;62.60
6407;DHT22;3236;51.022;6.818;2022-08-30T10:53:20;28.00;61.40
6407;DHT22;3236;51.022;6.818;2022-08-30T10:55:53;27.80;62.80
6407;DHT22;3236;51.022;6.818;2022-08-30T10:58:25;27.20;61.60
6407;DHT22;3236;51.022;6.818;2022-08-30T11:01:17;28.30;63.30
6407;DHT22;3236;51.022;6.818;2022-08-30T11:04:21;27.80;61.60
6407;DHT22;3236;51.022;6.818;2022-08-30T11:06:58;29.00;61.20
6407;DHT22;3236;51.022;6.818;2022-08-30T11:09:41;28.70;61.30
6407;DHT22;3236;51.022;6.818;2022-08-30T11:12:31;29.20;63.80
6407;DHT22;3236;51.022;6.818;2022-08-30T11:14:59;29.60;63.90
6407;DHT22;3236;51.022;6.818;2022-08-30T11:17:39;29.10;63.20
6407;DHT22;3236;51.022;6.818;2022-08-30T11:20:22;29.60;64.30
6407;DHT22;3236;51.022;6.818;2022-08-30T11:23:11;29.70;64.00
6407;DHT22;3236;51.022;6.818;2022-08-30T11:25:48;30.70;65.60
6407;DHT22;3236;51.022;6.818;2022-08-30T11:31:39;29.10;64.40
6407;DHT22;3236;51.022;6.818;2022-08-30T11:34:09;29.00;63.30
6407;DHT22;3236;51.022;6.818;2022-08-30T11:37:04;29.50;63.40
6407;DHT22;3236;51.022;6.818;2022-08-30T11:42:12;30.30;62.60
6407;DHT22;3236;51.022;6.818;2022-08-30T11:44:50;32.20;61.40
6407;DHT22;3236;51.022;6.818;2022-08-30T11:47:41;32.10;60.90
6407;DHT22;3236;51.022;6.818;2022-08-30T11:50:12;31.60;60.20
6407;DHT22;3236;51.022;6.818;2022-08-30T11:52:49;31.20;59.30
6407;DHT22;3236;51.022;6.818;2022-08-30T11:55:33;31.90;60.30
6407;DHT22;3236;51.022;6.818;2022-08-30T11:58:21;31.30;60.40
6407;DHT22;3236;51.022;6.818;2022-08-30T12:01:13;29.90;61.70
6407;DHT22;3236;51.022;6.818;2022-08-30T12:03:43;31.10;61.10
6407;DHT22;3236;51.022;6.818;2022-08-30T12:06:11;30.90;60.80
6407;DHT22;3236;51.022;6.818;2022-08-30T12:08:59;31.60;61.60
6407;DHT22;3236;51.022;6.818;2022-08-30T12:12:01;31.10;60.20
6407;DHT22;3236;51.022;6.818;2022-08-30T12:14:47;31.60;59.80
6407;DHT22;3236;51.022;6.818;2022-08-30T12:17:26;31.10;61.10
6407;DHT22;3236;51.022;6.818;2022-08-30T12:20:26;31.10;60.30
6407;DHT22;3236;51.022;6.818;2022-08-30T12:22:54;31.60;60.10
6407;DHT22;3236;51.022;6.818;2022-08-30T12:25:28;32.10;59.00
6407;DHT22;3236;51.022;6.818;2022-08-30T12:28:14;32.60;58.40
6407;DHT22;3236;51.022;6.818;2022-08-30T12:30:42;33.20;58.40
6407;DHT22;3236;51.022;6.818;2022-08-30T12:33:11;32.50;58.60
6407;DHT22;3236;51.022;6.818;2022-08-30T12:35:40;32.60;58.40
6407;DHT22;3236;51.022;6.818;2022-08-30T12:38:16;31.50;58.30
6407;DHT22;3236;51.022;6.818;2022-08-30T12:40:53;32.70;58.30
6407;DHT22;3236;51.022;6.818;2022-08-30T12:43:30;32.00;58.10
6407;DHT22;3236;51.022;6.818;2022-08-30T12:46:01;33.00;58.00
6407;DHT22;3236;51.022;6.818;2022-08-30T12:48:33;33.30;57.60
6407;DHT22;3236;51.022;6.818;2022-08-30T12:51:01;33.30;57.10
6407;DHT22;3236;51.022;6.818;2022-08-30T12:53:30;32.80;57.40
6407;DHT22;3236;51.022;6.818;2022-08-30T12:56:02;31.80;57.10
6407;DHT22;3236;51.022;6.818;2022-08-30T12:58:39;32.20;57.90
6407;DHT22;3236;51.022;6.818;2022-08-30T13:01:24;33.40;57.30
6407;DHT22;3236;51.022;6.818;2022-08-30T13:04:09;34.70;56.20
6407;DHT22;3236;51.022;6.818;2022-08-30T13:06:46;34.30;55.90
6407;DHT22;3236;51.022;6.818;2022-08-30T13:09:22;33.60;55.70
6407;DHT22;3236;51.022;6.818;2022-08-30T13:11:53;32.90;55.40
6407;DHT22;3236;51.022;6.818;2022-08-30T13:19:35;32.80;55.80
6407;DHT22;3236;51.022;6.818;2022-08-30T13:22:03;33.60;55.20
6407;DHT22;3236;51.022;6.818;2022-08-30T13:24:40;33.70;55.10
6407;DHT22;3236;51.022;6.818;2022-08-30T13:27:08;34.10;54.40
6407;DHT22;3236;51.022;6.818;2022-08-30T13:29:37;34.80;54.40
6407;DHT22;3236;51.022;6.818;2022-08-30T13:32:05;34.40;53.60
6407;DHT22;3236;51.022;6.818;2022-08-30T13:34:35;35.70;53.20
6407;DHT22;3236;51.022;6.818;2022-08-30T13:37:03;35.90;53.00
6407;DHT22;3236;51.022;6.818;2022-08-30T13:39:32;35.30;52.30
6407;DHT22;3236;51.022;6.818;2022-08-30T13:42:00;34.90;52.60
6407;DHT22;3236;51.022;6.818;2022-08-30T13:44:29;34.30;52.90
6407;DHT22;3236;51.022;6.818;2022-08-30T13:46:59;33.60;52.70
6407;DHT22;3236;51.022;6.818;2022-08-30T13:49:28;34.90;53.50
6407;DHT22;3236;51.022;6.818;2022-08-30T13:51:56;34.60;52.60
6407;DHT22;3236;51.022;6.818;2022-08-30T13:54:23;33.60;52.30
6407;DHT22;3236;51.022;6.818;2022-08-30T13:56:51;34.40;53.10
6407;DHT22;3236;51.022;6.818;2022-08-30T13:59:20;35.30;53.30
6407;DHT22;3236;51.022;6.818;2022-08-30T14:01:52;35.20;52.10
6407;DHT22;3236;51.022;6.818;2022-08-30T14:04:20;35.00;52.20
6407;DHT22;3236;51.022;6.818;2022-08-30T14:06:47;35.10;51.50
6407;DHT22;3236;51.022;6.818;2022-08-30T14:09:17;35.40;50.70
6407;DHT22;3236;51.022;6.818;2022-08-30T14:11:47;34.50;51.20
6407;DHT22;3236;51.022;6.818;2022-08-30T14:14:14;34.30;51.30
6407;DHT22;3236;51.022;6.818;2022-08-30T14:19:12;34.10;51.90
6407;DHT22;3236;51.022;6.818;2022-08-30T14:24:07;32.60;52.70
6407;DHT22;3236;51.022;6.818;2022-08-30T14:26:38;33.00;52.50
6407;DHT22;3236;51.022;6.818;2022-08-30T14:29:10;33.60;52.60
6407;DHT22;3236;51.022;6.818;2022-08-30T14:31:38;33.00;52.80
6407;DHT22;3236;51.022;6.818;2022-08-30T14:34:06;33.60;53.10
6407;DHT22;3236;51.022;6.818;2022-08-30T14:36:36;33.50;51.80
6407;DHT22;3236;51.022;6.818;2022-08-30T14:39:12;33.70;52.60
6407;DHT22;3236;51.022;6.818;2022-08-30T14:41:41;33.60;53.60
6407;DHT22;3236;51.022;6.818;2022-08-30T14:44:09;32.80;54.10
6407;DHT22;3236;51.022;6.818;2022-08-30T14:46:36;32.90;53.00
6407;DHT22;3236;51.022;6.818;2022-08-30T14:49:03;32.70;52.50
6407;DHT22;3236;51.022;6.818;2022-08-30T14:51:30;33.60;53.00
6407;DHT22;3236;51.022;6.818;2022-08-30T14:53:58;33.10;52.80
6407;DHT22;3236;51.022;6.818;2022-08-30T14:56:28;33.20;52.60
6407;DHT22;3236;51.022;6.818;2022-08-30T14:59:01;33.60;52.40
6407;DHT22;3236;51.022;6.818;2022-08-30T15:01:43;33.00;52.50
6407;DHT22;3236;51.022;6.818;2022-08-30T15:04:12;33.40;53.40
6407;DHT22;3236;51.022;6.818;2022-08-30T15:06:41;32.60;53.30
6407;DHT22;3236;51.022;6.818;2022-08-30T15:09:12;32.90;53.30
6407;DHT22;3236;51.022;6.818;2022-08-30T15:11:39;33.30;53.10
6407;DHT22;3236;51.022;6.818;2022-08-30T15:14:08;33.10;53.30
6407;DHT22;3236;51.022;6.818;2022-08-30T15:16:37;33.20;53.30
6407;DHT22;3236;51.022;6.818;2022-08-30T15:19:09;33.20;52.20
6407;DHT22;3236;51.022;6.818;2022-08-30T15:21:39;33.60;52.90
6407;DHT22;3236;51.022;6.818;2022-08-30T15:24:07;33.40;52.90
6407;DHT22;3236;51.022;6.818;2022-08-30T15:26:48;32.50;52.70
6407;DHT22;3236;51.022;6.818;2022-08-30T15:34:25;33.20;52.60
6407;DHT22;3236;51.022;6.818;2022-08-30T15:36:52;33.60;53.80
6407;DHT22;3236;51.022;6.818;2022-08-30T15:39:19;32.80;53.80
6407;DHT22;3236;51.022;6.818;2022-08-30T15:41:50;32.50;54.50
6407;DHT22;3236;51.022;6.818;2022-08-30T15:44:18;32.00;54.40
6407;DHT22;3236;51.022;6.818;2022-08-30T15:46:45;32.40;55.00
6407;DHT22;3236;51.022;6.818;2022-08-30T15:49:14;32.10;55.50
6407;DHT22;3236;51.022;6.818;2022-08-30T15:51:44;32.00;55.70
6407;DHT22;3236;51.022;6.818;2022-08-30T15:54:13;31.70;55.60
6407;DHT22;3236;51.022;6.818;2022-08-30T15:56:41;30.30;55.90
6407;DHT22;3236;51.022;6.818;2022-08-30T15:59:08;29.50;56.20
6407;DHT22;3236;51.022;6.818;2022-08-30T16:01:39;30.00;57.90
6407;DHT22;3236;51.022;6.818;2022-08-30T16:04:08;29.50;58.10
6407;DHT22;3236;51.022;6.818;2022-08-30T16:06:36;28.80;58.20
6407;DHT22;3236;51.022;6.818;2022-08-30T16:09:05;28.60;58.60
6407;DHT22;3236;51.022;6.818;2022-08-30T16:11:33;28.90;59.60
6407;DHT22;3236;51.022;6.818;2022-08-30T16:14:01;28.40;59.30
6407;DHT22;3236;51.022;6.818;2022-08-30T16:16:28;28.70;59.60
6407;DHT22;3236;51.022;6.818;2022-08-30T16:19:09;27.80;60.30
6407;DHT22;3236;51.022;6.818;2022-08-30T16:21:37;28.00;60.70
6407;DHT22;3236;51.022;6.818;2022-08-30T16:24:09;29.00;57.90
6407;DHT22;3236;51.022;6.818;2022-08-30T16:26:37;29.50;59.80
6407;DHT22;3236;51.022;6.818;2022-08-30T16:29:05;28.50;59.40
6407;DHT22;3236;51.022;6.818;2022-08-30T16:31:33;29.20;60.20
6407;DHT22;3236;51.022;6.818;2022-08-30T16:34:01;28.90;60.40
6407;DHT22;3236;51.022;6.818;2022-08-30T16:36:29;28.50;59.70
6407;DHT22;3236;51.022;6.818;2022-08-30T16:39:01;28.70;59.40
6407;DHT22;3236;51.022;6.818;2022-08-30T16:41:30;28.70;60.10
6407;DHT22;3236;51.022;6.818;2022-08-30T16:43:57;28.50;59.80
6407;DHT22;3236;51.022;6.818;2022-08-30T16:46:30;27.90;59.90
6407;DHT22;3236;51.022;6.818;2022-08-30T16:49:05;27.60;60.50
6407;DHT22;3236;51.022;6.818;2022-08-30T16:51:35;27.50;61.30
6407;DHT22;3236;51.022;6.818;2022-08-30T16:54:05;26.90;61.20
6407;DHT22;3236;51.022;6.818;2022-08-30T16:56:35;27.10;59.60
6407;DHT22;3236;51.022;6.818;2022-08-30T16:59:04;27.40;62.50
6407;DHT22;3236;51.022;6.818;2022-08-30T17:01:34;26.30;62.50
6407;DHT22;3236;51.022;6.818;2022-08-30T17:04:04;26.10;63.10
6407;DHT22;3236;51.022;6.818;2022-08-30T17:06:40;26.70;64.10
6407;DHT22;3236;51.022;6.818;2022-08-30T17:09:10;25.90;63.20
6407;DHT22;3236;51.022;6.818;2022-08-30T17:11:39;25.70;64.50
6407;DHT22;3236;51.022;6.818;2022-08-30T17:14:09;26.40;64.80
6407;DHT22;3236;51.022;6.818;2022-08-30T17:16:37;26.40;63.40
6407;DHT22;3236;51.022;6.818;2022-08-30T17:19:05;25.90;64.00
6407;DHT22;3236;51.022;6.818;2022-08-30T17:21:33;25.30;65.20
6407;DHT22;3236;51.022;6.818;2022-08-30T17:24:01;26.10;66.30
6407;DHT22;3236;51.022;6.818;2022-08-30T17:26:28;26.00;66.10
6407;DHT22;3236;51.022;6.818;2022-08-30T17:28:57;25.60;63.80
6407;DHT22;3236;51.022;6.818;2022-08-30T17:38:47;24.90;67.40